Main page
METAR-TAF:

METAR-TAF

Airports :

Mariehamn Airport

Mariehamn, Finland

latitude: 60-07N, longitude: 019-54E, elevation: 6 m

Current weather observation

The report was made 22 minutes ago, at 21:20 UTC
Wind 10 kt from the North, varying between North/Northwest and North/Northeast
Temperature 1°C
Humidity 93%
Pressure 993 hPa
Visibility 10 km or more
Overcast at a height of 700 ft
light snow

METAR: EFMA 092120Z AUTO 36010KT 330V030 9999 -SN OVC007 01/M00 Q0993

Time: 23:42 (21:42 UTC)

Forecast

The report was made 1 hour and 18 minutes ago, at 20:24 UTC
Forecast valid from 09 at 21 UTC to 10 at 06 UTC
Wind 7 kt from the North
Visibility 10 km or more
Overcast at a height of 600 ft
light snow
Temporary
from 09 at 21 UTC to 10 at 01 UTC
Visibility: 2500 m
snow
Becoming
from 10 at 01 UTC to 10 at 03 UTC
Visibility 10 km or more
no clouds below 1500 m and no cumulonimbus

TAF: EFMA 092024Z 0921/1006 36007KT 9999 -SN OVC006 TEMPO 0921/1001 2500 SN BECMG 1001/1003 CAVOK

Weather observations and forecasts of more than 4000 airports (METAR and TAF reports).

The available stations are represented by yellow and red dots on the map.

Hover mouse over dot to see the name of the station.

Then click to see weather observations and forecasts.

To change the map : click on the green buttons with a black cross to zoom in, on the green button with a dash to zoom out, or on the green arrows for adjacent maps.


METAR-TAF: